ETOU/WIE METAR and TAF weather

Enter ICAO airport designator
Station Type Date Time Source
ETOU METAR 2020/06/02 15:56 UTC NOAA

ETOU 021556Z AUTO 29003KT 9999 CLR 28/07 A2993 RMK AO2 SLP133 T02780065 $


Station Type Date Time Source
ETOU Decoded METAR 2020/06/02 15:56 UTC NOAA

Wiesbaden, Germany (ETOU) 50-03N 008-20E
Jun 02, 2020 - 11:56 AM EDT / 2020.06.02 1556 UTC
Wind: from the WNW (290 degrees) at 3 MPH (3 KT):0
Visibility: greater than 7 mile(s):0
Sky conditions: clear
Temperature: 82.0 F (27.8 C)
Dew Point: 43.7 F (6.5 C)
Relative Humidity: 25%
Pressure (altimeter): 29.93 in. Hg (1013 hPa)
ob: ETOU 021556Z AUTO 29003KT 9999 CLR 28/07 A2993 RMK AO2 SLP133 T02780065
cycle: 16

Station Type Date Time Source
ETOU TAF 2020/06/02 12:21 UTC NOAA

TAF ETOU 021204Z 0212/0318 12006KT 9999 FEW200 QNH2982INS
BECMG 0303/0304 18006KT 9999 BKN060 QNH2971INS
BECMG 0309/0310 22010G15KT 9999 VCTS BKN060CB QNH2960INS
BECMG 0316/0317 VRB06KT 9999 NSW BKN050 610702 QNH2957INS TX28/0215Z TN15/0303Z

Example: see airport list